createdAt,value
2023-04-03T03:03:33.578Z,2.03
2023-04-03T03:08:39.911Z,2.33
2023-04-03T03:13:43.072Z,2.30
2023-04-03T03:18:47.639Z,2.33
2023-04-03T17:24:50.673Z,3.58
2023-04-03T17:29:59.844Z,3.92
2023-04-03T17:35:02.987Z,4.40
2023-04-03T17:40:19.201Z,4.13
2023-04-03T17:45:22.365Z,4.07
2023-04-03T17:50:31.760Z,4.00
2023-04-03T17:55:39.019Z,3.92
2023-04-03T18:00:47.345Z,3.83
2023-04-03T18:05:55.555Z,4.10
2023-04-03T18:11:18.647Z,4.32
2023-04-03T18:16:26.072Z,4.40
2023-04-03T18:21:31.278Z,7.53
2023-04-03T18:26:44.147Z,5.93
2023-04-03T18:31:53.019Z,5.95
2023-04-03T18:36:57.383Z,5.53
2023-04-03T18:42:06.701Z,5.95
2023-04-03T18:47:12.108Z,5.20
2023-04-03T18:52:20.564Z,5.35
2023-04-03T18:57:26.758Z,7.75
2023-04-03T19:02:38.437Z,10.75
2023-04-03T19:07:48.984Z,10.43
2023-04-03T19:12:55.197Z,7.28
2023-04-03T19:18:00.317Z,6.95
2023-04-03T19:23:05.391Z,6.70
2023-04-03T19:28:10.533Z,6.40
2023-04-03T19:33:13.919Z,6.55
2023-04-03T19:38:18.382Z,7.85
2023-04-03T19:43:27.175Z,6.60
2023-04-03T19:48:32.376Z,7.80
2023-04-03T19:53:37.012Z,7.85
2023-04-03T19:58:44.546Z,7.68
2023-04-03T20:03:52.036Z,7.97
2023-04-03T20:08:56.968Z,7.63
2023-04-03T20:19:07.448Z,7.03
2023-04-03T20:24:14.442Z,7.72
2023-04-03T20:29:29.179Z,7.50
2023-04-03T20:34:34.782Z,6.63
2023-04-03T20:39:42.749Z,7.55
2023-04-03T20:44:51.102Z,7.70
2023-04-03T20:50:00.336Z,8.20
2023-04-03T20:55:03.544Z,7.90
2023-04-03T21:00:09.925Z,9.27
2023-04-03T21:05:13.828Z,9.10
2023-04-03T21:10:56.676Z,8.80
2023-04-03T21:16:02.688Z,9.15
2023-04-03T21:21:22.576Z,8.00
2023-04-03T21:26:31.962Z,7.63
2023-04-03T21:31:57.046Z,7.65
2023-04-03T21:37:07.336Z,6.85
2023-04-03T21:42:15.895Z,7.95
2023-04-03T21:47:19.213Z,7.78
2023-04-03T21:52:23.829Z,6.75
2023-04-03T21:57:31.162Z,6.85
2023-04-03T22:02:43.629Z,6.25
2023-04-03T22:07:55.429Z,5.90
2023-04-03T22:12:59.810Z,6.07
2023-04-03T22:18:04.935Z,6.03
2023-04-03T22:23:09.724Z,6.50
2023-04-03T23:55:54.483Z,5.18
